createdAt,value
2019-01-31T00:02:34.896Z,1.87
2019-01-31T00:05:22.740Z,1.57
2019-01-31T00:08:12.434Z,1.65
2019-01-31T00:10:46.713Z,1.85
2019-01-31T00:13:22.271Z,1.50
2019-01-31T00:16:08.620Z,1.50
2019-01-31T00:18:43.310Z,2.17
2019-01-31T00:21:24.317Z,1.92
2019-01-31T00:24:15.249Z,2.20
2019-01-31T00:27:01.681Z,1.75
2019-01-31T00:29:36.966Z,1.70
2019-01-31T00:32:15.089Z,1.90
2019-01-31T00:35:01.387Z,1.82
2019-01-31T00:37:54.978Z,1.90
2019-01-31T00:40:45.552Z,1.98
2019-01-31T00:43:24.471Z,2.17
2019-01-31T00:46:15.039Z,2.10
2019-01-31T00:49:01.281Z,2.58
2019-01-31T00:51:33.968Z,1.95
2019-01-31T00:54:20.100Z,2.30
2019-01-31T00:56:56.377Z,3.00
2019-01-31T00:59:50.111Z,2.27
2019-01-31T01:02:32.112Z,2.22
2019-01-31T01:05:19.889Z,2.08
2019-01-31T01:08:10.710Z,2.20
2019-01-31T01:10:49.439Z,2.00
2019-01-31T01:13:29.786Z,2.17
2019-01-31T01:16:10.553Z,1.85
2019-01-31T01:18:53.174Z,2.50
2019-01-31T01:21:59.112Z,2.00
2019-01-31T01:24:55.992Z,2.25
2019-01-31T01:27:52.715Z,2.40
2019-01-31T01:30:40.473Z,2.22
2019-01-31T01:33:22.489Z,2.47
2019-01-31T01:35:56.596Z,2.72
2019-01-31T01:38:35.921Z,3.22
2019-01-31T01:41:18.383Z,3.58
2019-01-31T01:44:06.352Z,4.05
2019-01-31T01:46:47.193Z,3.87
2019-01-31T01:49:21.799Z,3.70
2019-01-31T01:51:57.142Z,4.37
2019-01-31T01:54:36.434Z,3.40
2019-01-31T01:57:22.437Z,3.75
2019-01-31T02:00:06.966Z,3.45
2019-01-31T02:03:04.011Z,3.17
2019-01-31T02:05:39.836Z,3.75
2019-01-31T02:08:28.909Z,3.25
2019-01-31T02:11:07.802Z,3.65
2019-01-31T02:13:58.673Z,3.62
2019-01-31T02:16:46.494Z,2.67
2019-01-31T02:19:34.291Z,3.40
2019-01-31T02:22:17.579Z,3.15
2019-01-31T02:24:48.522Z,3.45
2019-01-31T02:27:20.596Z,3.30
2019-01-31T02:30:05.602Z,2.90
2019-01-31T02:32:50.344Z,2.92
2019-01-31T02:35:31.199Z,3.02
2019-01-31T02:38:06.704Z,2.60
2019-01-31T02:40:45.618Z,2.85
2019-01-31T02:43:39.611Z,3.22
2019-01-31T02:46:26.270Z,2.98
2019-01-31T02:49:14.061Z,2.70
2019-01-31T02:51:46.417Z,2.98
2019-01-31T02:54:38.756Z,3.00
2019-01-31T02:57:17.177Z,3.37
2019-01-31T02:59:55.209Z,2.90
2019-01-31T03:02:30.746Z,2.98
2019-01-31T03:05:24.314Z,2.77
2019-01-31T03:08:10.801Z,2.87
2019-01-31T03:10:44.349Z,3.15
2019-01-31T03:13:26.869Z,3.10
2019-01-31T03:16:00.443Z,3.37
2019-01-31T03:18:41.471Z,3.35
2019-01-31T03:21:47.470Z,3.55
2019-01-31T03:24:38.092Z,2.80
2019-01-31T03:27:23.810Z,4.17
2019-01-31T03:30:11.660Z,3.80
2019-01-31T03:32:47.119Z,2.90
2019-01-31T03:35:37.148Z,3.15
2019-01-31T03:38:14.660Z,3.50
2019-01-31T03:41:02.533Z,3.45
2019-01-31T03:43:50.360Z,3.42
2019-01-31T03:46:25.315Z,3.17
2019-01-31T03:49:04.504Z,4.03
2019-01-31T03:51:58.289Z,3.00
2019-01-31T03:54:44.227Z,3.60
2019-01-31T03:57:26.665Z,3.47
2019-01-31T04:00:13.121Z,4.20
2019-01-31T04:03:06.722Z,3.30
2019-01-31T04:05:40.183Z,3.67
2019-01-31T04:08:09.403Z,3.47
2019-01-31T04:10:38.097Z,3.37
2019-01-31T04:13:07.333Z,3.70
2019-01-31T04:15:36.161Z,3.58
2019-01-31T04:18:05.299Z,4.17
2019-01-31T04:20:34.045Z,3.75
2019-01-31T04:23:02.810Z,3.47
2019-01-31T04:25:31.595Z,2.90
2019-01-31T04:28:00.329Z,2.95
2019-01-31T04:30:29.111Z,3.85
2019-01-31T04:32:57.776Z,2.80
2019-01-31T04:35:26.495Z,2.85
2019-01-31T04:37:55.256Z,2.92
2019-01-31T04:40:30.976Z,3.35
2019-01-31T04:42:54.551Z,3.10
2019-01-31T04:45:23.299Z,2.65
2019-01-31T04:47:52.189Z,3.22
2019-01-31T04:50:21.020Z,3.55
2019-01-31T04:52:49.731Z,3.27
2019-01-31T04:55:18.435Z,3.30
2019-01-31T04:57:47.177Z,3.08
2019-01-31T05:00:16.621Z,2.80
2019-01-31T05:02:45.390Z,3.20
2019-01-31T05:05:14.155Z,2.92
2019-01-31T05:07:42.822Z,3.40
2019-01-31T05:10:12.101Z,2.77
2019-01-31T05:12:40.846Z,2.95
2019-01-31T05:15:11.861Z,3.22
2019-01-31T05:17:40.525Z,3.17
2019-01-31T05:20:10.899Z,3.05
2019-01-31T05:22:39.587Z,3.30
2019-01-31T05:25:08.635Z,3.85
2019-01-31T05:27:37.299Z,3.12
2019-01-31T05:30:06.296Z,3.27
2019-01-31T05:32:34.997Z,3.22
2019-01-31T05:35:04.009Z,3.83
2019-01-31T05:37:32.665Z,3.40
2019-01-31T05:40:01.446Z,3.25
2019-01-31T05:42:30.235Z,4.20
2019-01-31T05:44:58.948Z,3.95
2019-01-31T05:47:27.653Z,4.00
2019-01-31T05:49:56.331Z,4.00
2019-01-31T05:52:25.085Z,3.50
2019-01-31T05:54:53.825Z,3.87
2019-01-31T05:57:22.522Z,3.67
2019-01-31T05:59:51.339Z,3.98
2019-01-31T06:02:20.261Z,4.08
2019-01-31T06:04:49.327Z,3.85
2019-01-31T06:07:18.083Z,3.80
2019-01-31T06:09:46.868Z,3.83
2019-01-31T06:12:15.580Z,4.42
2019-01-31T06:14:44.266Z,3.70
2019-01-31T06:17:13.139Z,4.22
2019-01-31T06:19:41.947Z,4.47
2019-01-31T06:22:10.599Z,3.47
2019-01-31T06:24:39.387Z,3.47
2019-01-31T06:27:08.066Z,4.17
2019-01-31T06:29:36.831Z,3.77
2019-01-31T06:32:05.586Z,3.58
2019-01-31T06:34:34.253Z,3.25
2019-01-31T06:37:03.188Z,4.10
2019-01-31T06:39:31.977Z,3.65
2019-01-31T06:42:00.715Z,4.37
2019-01-31T06:44:29.500Z,3.60
2019-01-31T06:46:58.180Z,3.58
2019-01-31T06:49:26.897Z,3.72
2019-01-31T06:51:55.582Z,3.67
2019-01-31T06:54:24.345Z,3.65
2019-01-31T06:56:53.129Z,4.03
2019-01-31T06:59:21.917Z,3.95
2019-01-31T07:01:52.473Z,3.77
2019-01-31T07:04:21.209Z,3.80
2019-01-31T07:06:49.998Z,4.12
2019-01-31T07:09:20.525Z,4.87
2019-01-31T07:11:49.182Z,4.25
2019-01-31T07:14:17.869Z,4.17
2019-01-31T07:16:46.694Z,4.80
2019-01-31T07:19:15.424Z,4.20
2019-01-31T07:21:44.177Z,4.42
2019-01-31T07:24:12.936Z,4.97
2019-01-31T07:26:41.687Z,4.75
2019-01-31T07:29:10.393Z,4.85
2019-01-31T07:31:39.208Z,4.50
2019-01-31T07:34:07.917Z,3.95
2019-01-31T07:36:36.705Z,3.85
2019-01-31T07:39:07.201Z,4.20
2019-01-31T07:41:41.354Z,3.60
2019-01-31T07:44:06.336Z,3.95
2019-01-31T07:46:35.121Z,3.95
2019-01-31T07:49:03.916Z,3.37
2019-01-31T07:51:32.588Z,3.37
2019-01-31T07:54:01.391Z,3.80
2019-01-31T07:56:30.116Z,3.58
2019-01-31T07:58:58.798Z,3.22
2019-01-31T08:01:27.445Z,3.40
2019-01-31T08:04:02.580Z,3.70
2019-01-31T08:06:26.691Z,4.17
2019-01-31T08:08:55.475Z,3.37
2019-01-31T08:11:24.222Z,3.47
2019-01-31T08:13:52.977Z,3.83
2019-01-31T08:16:21.714Z,3.90
2019-01-31T08:18:50.563Z,3.95
2019-01-31T08:21:19.245Z,4.50
2019-01-31T08:23:47.945Z,3.30
2019-01-31T08:26:16.647Z,3.30
2019-01-31T08:28:45.345Z,3.17
2019-01-31T08:31:14.054Z,3.12
2019-01-31T08:33:42.716Z,3.90
2019-01-31T08:36:11.437Z,3.22
2019-01-31T08:38:40.108Z,2.95
2019-01-31T08:41:08.867Z,3.30
2019-01-31T08:43:37.540Z,3.77
2019-01-31T08:46:06.322Z,3.70
2019-01-31T08:48:35.088Z,3.47
2019-01-31T08:51:03.691Z,3.83
2019-01-31T08:53:32.442Z,4.40
2019-01-31T08:56:01.208Z,3.87
2019-01-31T08:58:30.076Z,3.40
2019-01-31T09:00:58.798Z,3.45
2019-01-31T09:03:27.580Z,3.35
2019-01-31T09:05:56.375Z,3.52
2019-01-31T09:08:25.072Z,3.02
2019-01-31T09:10:53.888Z,3.12
2019-01-31T09:13:23.616Z,3.10
2019-01-31T09:15:52.363Z,3.87
2019-01-31T09:18:21.084Z,3.20
2019-01-31T09:21:04.174Z,3.12
2019-01-31T09:24:09.972Z,3.60
2019-01-31T09:27:03.791Z,3.05
2019-01-31T09:29:47.991Z,3.10
2019-01-31T09:32:35.789Z,3.42
2019-01-31T09:35:16.619Z,3.17
2019-01-31T09:37:58.438Z,3.17
2019-01-31T09:40:36.564Z,3.22
2019-01-31T09:43:36.132Z,2.85
2019-01-31T09:46:09.371Z,2.75
2019-01-31T09:49:03.218Z,3.12
2019-01-31T09:51:59.926Z,3.37
2019-01-31T09:54:37.783Z,3.37
2019-01-31T09:57:19.549Z,4.28
2019-01-31T10:00:27.795Z,3.62
2019-01-31T10:03:03.527Z,3.62
2019-01-31T10:05:55.144Z,3.45
2019-01-31T10:08:30.404Z,2.90
2019-01-31T10:11:30.109Z,3.72
2019-01-31T10:14:23.928Z,3.47
2019-01-31T10:17:12.037Z,3.77
2019-01-31T10:19:58.740Z,3.87
2019-01-31T10:22:46.692Z,4.10
2019-01-31T10:25:24.891Z,3.77
2019-01-31T10:28:21.777Z,3.40
2019-01-31T10:31:08.221Z,3.98
2019-01-31T10:34:01.745Z,3.00
2019-01-31T10:36:49.636Z,2.72
2019-01-31T10:39:22.097Z,3.20
2019-01-31T10:42:03.591Z,3.37
2019-01-31T10:44:51.568Z,3.60
2019-01-31T10:47:42.372Z,3.50
2019-01-31T10:50:21.827Z,3.22
2019-01-31T10:53:08.317Z,2.98
2019-01-31T10:55:43.756Z,3.40
2019-01-31T10:58:30.177Z,3.58
2019-01-31T11:01:05.642Z,3.85
2019-01-31T11:03:53.518Z,3.35
2019-01-31T11:06:34.414Z,3.80
2019-01-31T11:09:21.985Z,3.80
2019-01-31T11:12:08.321Z,3.80
2019-01-31T11:14:56.385Z,3.60
2019-01-31T11:17:33.042Z,4.33
2019-01-31T11:20:19.755Z,4.57
2019-01-31T11:23:00.835Z,4.03
2019-01-31T11:25:47.373Z,4.50
2019-01-31T11:28:30.741Z,4.20
2019-01-31T11:31:04.004Z,3.77
2019-01-31T11:33:40.145Z,4.10
2019-01-31T11:36:22.331Z,4.57
2019-01-31T11:39:15.274Z,4.23
2019-01-31T11:42:09.288Z,4.33
2019-01-31T11:44:50.342Z,3.63
2019-01-31T11:47:36.566Z,3.27
2019-01-31T11:50:13.313Z,3.50
2019-01-31T11:52:51.724Z,3.53
2019-01-31T11:55:51.331Z,3.53
2019-01-31T11:58:48.001Z,4.23
2019-01-31T12:01:19.322Z,3.40
2019-01-31T12:03:49.674Z,2.90
2019-01-31T12:06:18.469Z,3.30
2019-01-31T12:08:47.162Z,3.70
2019-01-31T12:11:15.802Z,3.20
2019-01-31T12:13:44.492Z,2.93
2019-01-31T12:16:13.224Z,2.00
2019-01-31T12:18:41.962Z,2.07
2019-01-31T12:21:10.799Z,1.50
2019-01-31T12:23:39.574Z,2.00
2019-01-31T12:26:08.294Z,2.07
2019-01-31T12:28:36.883Z,1.90
2019-01-31T12:31:05.606Z,1.80
2019-01-31T12:33:34.253Z,1.53
2019-01-31T12:36:03.003Z,1.80
2019-01-31T12:38:36.934Z,1.47
2019-01-31T12:41:02.113Z,1.50
2019-01-31T12:43:35.208Z,1.73
2019-01-31T12:46:01.198Z,1.60
2019-01-31T12:48:29.973Z,1.60
2019-01-31T12:50:58.728Z,1.67
2019-01-31T12:53:27.543Z,1.57
2019-01-31T12:55:56.269Z,1.60
2019-01-31T12:58:33.337Z,1.77
2019-01-31T13:00:55.481Z,1.40
2019-01-31T13:03:27.315Z,1.70
2019-01-31T13:05:56.006Z,1.63
2019-01-31T13:08:24.674Z,1.50
2019-01-31T13:10:53.340Z,1.53
2019-01-31T13:13:22.045Z,1.80
2019-01-31T13:15:50.875Z,1.80
2019-01-31T13:18:19.549Z,1.97
2019-01-31T13:20:48.243Z,1.53
2019-01-31T13:23:16.927Z,1.77
2019-01-31T13:25:45.677Z,1.80
2019-01-31T13:28:14.375Z,1.90
2019-01-31T13:30:43.172Z,1.60
2019-01-31T13:33:11.899Z,1.70
2019-01-31T13:35:40.665Z,1.60
2019-01-31T13:38:09.555Z,1.70
2019-01-31T13:40:38.243Z,1.60
2019-01-31T13:43:07.013Z,1.67
2019-01-31T13:45:36.612Z,2.00
2019-01-31T13:48:06.679Z,2.10
2019-01-31T13:50:35.366Z,1.70
2019-01-31T13:53:04.610Z,1.90
2019-01-31T13:55:33.543Z,1.70
2019-01-31T13:58:02.412Z,1.63
2019-01-31T14:00:31.071Z,1.90
2019-01-31T14:02:59.767Z,1.83
2019-01-31T14:05:30.017Z,1.80
2019-01-31T14:07:58.914Z,1.50
2019-01-31T14:10:27.697Z,2.50
2019-01-31T14:12:56.388Z,1.83
2019-01-31T14:15:33.049Z,1.50
2019-01-31T14:17:57.864Z,1.30
2019-01-31T14:20:27.117Z,1.27
2019-01-31T14:22:55.799Z,1.20
2019-01-31T14:25:24.776Z,1.73
2019-01-31T14:27:53.571Z,1.60
2019-01-31T14:30:32.160Z,1.70
2019-01-31T14:33:01.241Z,1.70
2019-01-31T14:35:29.958Z,1.50
2019-01-31T14:37:58.602Z,1.63
2019-01-31T14:40:27.634Z,1.30
2019-01-31T14:42:56.452Z,1.40
2019-01-31T14:45:25.735Z,1.40
2019-01-31T14:47:55.879Z,1.70
2019-01-31T14:50:26.075Z,1.50
2019-01-31T14:52:57.958Z,1.30
2019-01-31T14:55:26.708Z,1.40
2019-01-31T14:57:55.539Z,1.60
2019-01-31T15:00:25.285Z,1.43
2019-01-31T15:02:54.087Z,1.40
2019-01-31T15:05:22.748Z,1.10
2019-01-31T15:07:51.469Z,1.50
2019-01-31T15:10:21.331Z,1.30
2019-01-31T15:12:51.507Z,2.00
2019-01-31T15:15:20.330Z,1.70
2019-01-31T15:17:49.111Z,1.70
2019-01-31T15:20:35.961Z,1.50
2019-01-31T15:22:55.179Z,1.50
2019-01-31T15:25:23.962Z,1.73
2019-01-31T15:27:52.697Z,1.70
2019-01-31T15:30:22.985Z,1.53
2019-01-31T15:32:51.667Z,1.60
2019-01-31T15:35:20.389Z,1.80
2019-01-31T15:37:49.063Z,2.67
2019-01-31T15:40:19.099Z,1.90
2019-01-31T15:42:49.045Z,1.60
2019-01-31T15:45:17.943Z,1.77
2019-01-31T15:47:46.662Z,2.47
2019-01-31T15:50:15.536Z,1.90
2019-01-31T15:52:44.803Z,2.10
2019-01-31T15:55:14.251Z,2.17
2019-01-31T15:57:43.066Z,2.10
2019-01-31T16:00:18.815Z,2.30
2019-01-31T16:02:48.181Z,2.30
2019-01-31T16:05:19.386Z,2.37
2019-01-31T16:07:48.261Z,2.40
2019-01-31T16:10:17.221Z,2.27
2019-01-31T16:12:45.961Z,1.90
2019-01-31T16:15:15.291Z,2.80
2019-01-31T16:17:44.037Z,2.30
2019-01-31T16:20:48.711Z,2.25
2019-01-31T16:23:21.371Z,1.95
2019-01-31T16:25:59.751Z,2.08
2019-01-31T16:28:37.514Z,2.58
2019-01-31T16:31:06.440Z,2.20
2019-01-31T16:33:35.423Z,2.15
2019-01-31T16:36:07.376Z,2.20
2019-01-31T16:39:03.353Z,2.47
2019-01-31T16:41:32.569Z,3.77
2019-01-31T16:44:01.321Z,4.90
2019-01-31T16:46:30.252Z,4.97
2019-01-31T16:48:59.176Z,5.30
2019-01-31T16:51:45.542Z,5.20
2019-01-31T16:54:14.501Z,6.55
2019-01-31T16:56:43.380Z,6.00
2019-01-31T16:59:12.169Z,5.47
2019-01-31T17:02:01.206Z,5.78
2019-01-31T17:10:12.631Z,5.25
2019-01-31T17:12:41.373Z,6.33
2019-01-31T17:15:17.524Z,5.25
2019-01-31T17:17:41.117Z,6.00
2019-01-31T17:20:11.909Z,5.90
2019-01-31T17:22:50.295Z,5.25
2019-01-31T17:25:19.207Z,5.80
2019-01-31T17:27:48.028Z,5.62
2019-01-31T17:30:18.305Z,5.00
2019-01-31T17:32:47.173Z,5.65
2019-01-31T17:35:16.551Z,4.72
2019-01-31T17:37:45.710Z,6.45
2019-01-31T17:40:20.147Z,7.95
2019-01-31T17:42:49.209Z,8.25
2019-01-31T17:45:29.556Z,8.90
2019-01-31T17:47:49.069Z,10.25
2019-01-31T17:50:18.504Z,8.63
2019-01-31T17:52:47.427Z,7.90
2019-01-31T17:55:17.526Z,8.45
2019-01-31T17:57:46.575Z,7.70
2019-01-31T18:00:24.187Z,7.92
2019-01-31T18:02:51.957Z,6.92
2019-01-31T18:05:20.921Z,7.33
2019-01-31T18:08:13.607Z,7.03
2019-01-31T18:10:42.646Z,6.58
2019-01-31T18:13:11.804Z,7.15
2019-01-31T18:15:42.463Z,7.25
2019-01-31T18:18:11.919Z,6.65
2019-01-31T18:20:41.093Z,6.10
2019-01-31T18:23:20.930Z,7.25
2019-01-31T18:25:49.791Z,6.75
2019-01-31T18:28:18.808Z,6.92
2019-01-31T18:30:48.951Z,6.42
2019-01-31T18:33:19.547Z,7.20
2019-01-31T18:35:48.587Z,7.17
2019-01-31T18:38:17.363Z,7.33
2019-01-31T18:40:46.316Z,7.37
2019-01-31T18:43:15.329Z,6.83
2019-01-31T18:45:52.994Z,7.87
2019-01-31T18:48:21.306Z,7.87
2019-01-31T18:50:51.528Z,7.35
2019-01-31T18:53:20.399Z,8.70
2019-01-31T18:55:49.305Z,8.15
2019-01-31T18:58:18.133Z,8.15
2019-01-31T19:00:47.953Z,9.55
2019-01-31T19:03:16.875Z,9.25
2019-01-31T19:05:45.981Z,9.10
2019-01-31T19:08:15.029Z,8.55
2019-01-31T19:10:44.087Z,9.78
2019-01-31T19:13:13.029Z,9.48
2019-01-31T19:15:46.276Z,9.78
2019-01-31T19:18:14.298Z,10.32
2019-01-31T19:20:43.371Z,9.85
2019-01-31T19:23:12.382Z,10.00
2019-01-31T19:25:41.403Z,10.05
2019-01-31T19:28:13.668Z,10.30
2019-01-31T19:30:46.448Z,10.20
2019-01-31T19:33:18.297Z,12.00
2019-01-31T19:35:47.176Z,11.97
2019-01-31T19:38:16.211Z,12.65
2019-01-31T19:40:46.057Z,11.97
2019-01-31T19:43:15.070Z,12.30
2019-01-31T19:45:45.439Z,12.37
2019-01-31T19:48:14.712Z,11.83
2019-01-31T19:50:47.415Z,12.35
2019-01-31T19:53:18.936Z,12.90
2019-01-31T19:55:50.820Z,12.78
2019-01-31T19:58:19.910Z,13.15
2019-01-31T20:00:49.025Z,12.43
2019-01-31T20:03:17.917Z,11.95
2019-01-31T20:05:46.772Z,11.93
2019-01-31T20:08:15.924Z,12.53
2019-01-31T20:10:44.863Z,11.97
2019-01-31T20:13:13.838Z,12.07
2019-01-31T20:15:42.723Z,11.10
2019-01-31T20:18:11.883Z,11.35
2019-01-31T20:20:42.706Z,11.22
2019-01-31T20:23:11.799Z,11.50
2019-01-31T20:25:41.214Z,11.38
2019-01-31T20:28:10.554Z,10.82
2019-01-31T20:30:39.689Z,11.55
2019-01-31T20:33:11.429Z,11.57
2019-01-31T20:35:40.435Z,10.93
2019-01-31T20:38:09.286Z,11.12
2019-01-31T20:40:41.846Z,12.00
2019-01-31T20:43:10.843Z,11.38
2019-01-31T20:45:39.876Z,11.03
2019-01-31T20:48:09.089Z,11.83
2019-01-31T20:50:40.304Z,11.73
2019-01-31T20:53:11.576Z,11.20
2019-01-31T20:55:40.880Z,11.08
2019-01-31T20:58:09.975Z,12.28
2019-01-31T21:00:44.649Z,10.43
2019-01-31T21:03:13.755Z,10.93
2019-01-31T21:05:43.018Z,10.53
2019-01-31T21:08:13.933Z,11.03
2019-01-31T21:10:42.892Z,11.43
2019-01-31T21:13:12.014Z,10.63
2019-01-31T21:15:41.253Z,10.05
2019-01-31T21:18:10.324Z,10.35
2019-01-31T21:20:39.250Z,10.78
2019-01-31T21:23:11.849Z,11.38
2019-01-31T21:25:40.800Z,10.85
2019-01-31T21:28:09.911Z,11.20
2019-01-31T21:30:42.205Z,10.53
2019-01-31T21:33:11.442Z,10.43
2019-01-31T21:35:40.437Z,10.03
2019-01-31T21:38:09.525Z,9.98
2019-01-31T21:40:38.906Z,10.55
2019-01-31T21:43:08.135Z,9.83
2019-01-31T21:45:37.144Z,10.60
2019-01-31T21:48:06.727Z,9.83
2019-01-31T21:50:35.334Z,9.68
2019-01-31T21:53:04.246Z,9.98
2019-01-31T21:55:32.981Z,10.48
2019-01-31T21:58:01.738Z,10.43
2019-01-31T22:00:31.519Z,11.00
2019-01-31T22:03:00.458Z,9.80
2019-01-31T22:05:29.320Z,10.45
2019-01-31T22:07:58.135Z,10.18
2019-01-31T22:10:26.906Z,9.73
2019-01-31T22:13:02.951Z,10.25
2019-01-31T22:15:32.149Z,9.48
2019-01-31T22:18:00.899Z,9.95
2019-01-31T22:20:29.774Z,10.40
2019-01-31T22:22:58.469Z,9.80
2019-01-31T22:25:29.339Z,9.93
2019-01-31T22:27:58.365Z,9.38
2019-01-31T22:30:30.609Z,10.80
2019-01-31T22:33:01.596Z,10.43
2019-01-31T22:35:30.436Z,10.05
2019-01-31T22:37:59.150Z,10.32
2019-01-31T22:40:27.841Z,10.68
2019-01-31T22:42:56.467Z,11.00
2019-01-31T22:45:25.219Z,12.03
2019-01-31T22:47:56.561Z,11.70
2019-01-31T22:50:25.467Z,12.20
2019-01-31T22:52:54.286Z,11.22
2019-01-31T22:55:28.781Z,12.35
2019-01-31T22:57:57.508Z,12.28
2019-01-31T23:01:07.893Z,13.25
2019-01-31T23:03:36.654Z,13.78
2019-01-31T23:06:09.496Z,15.30
2019-01-31T23:08:38.395Z,12.73
2019-01-31T23:11:07.135Z,14.63
2019-01-31T23:13:35.899Z,14.98
2019-01-31T23:16:05.135Z,13.98
2019-01-31T23:18:36.281Z,15.13
2019-01-31T23:21:05.338Z,14.15
2019-01-31T23:23:34.003Z,15.80
2019-01-31T23:26:04.813Z,16.60
2019-01-31T23:28:33.457Z,15.55
2019-01-31T23:31:02.263Z,15.45
2019-01-31T23:33:31.023Z,16.42
2019-01-31T23:35:59.867Z,16.15
2019-01-31T23:38:28.661Z,16.35
2019-01-31T23:40:57.408Z,16.45
2019-01-31T23:43:26.305Z,16.10
2019-01-31T23:45:55.045Z,16.70
2019-01-31T23:48:23.808Z,16.12
2019-01-31T23:50:52.561Z,17.60
2019-01-31T23:53:21.258Z,15.00
2019-01-31T23:55:49.975Z,16.45
2019-01-31T23:58:18.696Z,17.65
